createdAt,value
2022-11-16T00:01:14.621Z,12.78
2022-11-16T00:03:44.233Z,12.78
2022-11-16T00:06:13.411Z,12.79
2022-11-16T00:08:43.228Z,12.77
2022-11-16T00:11:12.913Z,12.78
2022-11-16T00:13:41.781Z,12.69
2022-11-16T00:16:14.206Z,12.75
2022-11-16T00:18:43.317Z,12.77
2022-11-16T00:21:11.800Z,12.75
2022-11-16T00:23:39.793Z,12.76
2022-11-16T00:26:09.374Z,12.76
2022-11-16T00:28:37.366Z,12.75
2022-11-16T00:31:07.556Z,12.74
2022-11-16T00:33:35.717Z,12.75
2022-11-16T00:36:06.517Z,12.75
2022-11-16T00:38:35.323Z,12.73
2022-11-16T00:41:03.354Z,12.75
2022-11-16T00:43:31.301Z,12.75
2022-11-16T00:45:59.127Z,12.75
2022-11-16T00:48:27.270Z,12.75
2022-11-16T00:50:55.010Z,12.74
2022-11-16T00:53:24.059Z,12.74
2022-11-16T00:55:51.778Z,12.75
2022-11-16T00:58:19.521Z,12.72
2022-11-16T01:00:47.221Z,12.74
2022-11-16T01:03:15.069Z,12.73
2022-11-16T01:05:42.809Z,12.73
2022-11-16T01:08:10.905Z,12.74
2022-11-16T01:10:42.064Z,12.67
2022-11-16T01:13:10.381Z,12.74
2022-11-16T01:15:38.067Z,12.75
2022-11-16T01:18:06.134Z,12.75
2022-11-16T01:20:33.877Z,12.75
2022-11-16T01:23:01.506Z,12.65
2022-11-16T01:25:29.195Z,12.74
2022-11-16T01:27:58.212Z,12.75
2022-11-16T01:30:25.932Z,12.75
2022-11-16T01:32:53.569Z,12.76
2022-11-16T01:35:21.451Z,12.75
2022-11-16T01:37:49.103Z,12.75
2022-11-16T01:40:16.797Z,12.76
2022-11-16T01:42:44.455Z,12.76
2022-11-16T01:45:28.654Z,12.76
2022-11-16T01:47:56.533Z,12.77
2022-11-16T01:50:24.454Z,12.77
2022-11-16T01:52:55.354Z,12.77
2022-11-16T01:55:24.216Z,12.73
2022-11-16T01:57:52.299Z,12.74
2022-11-16T02:00:22.000Z,12.75
2022-11-16T02:02:49.804Z,12.76
2022-11-16T02:05:20.133Z,12.76
2022-11-16T02:08:31.267Z,12.75
2022-11-16T02:11:14.601Z,12.75
2022-11-16T02:13:51.507Z,12.75
2022-11-16T02:16:35.007Z,12.75
2022-11-16T02:19:20.522Z,12.75
2022-11-16T02:22:00.217Z,12.76
2022-11-16T02:24:50.285Z,12.75
2022-11-16T02:27:51.131Z,12.75
2022-11-16T02:30:22.076Z,12.76
2022-11-16T02:32:55.227Z,12.76
2022-11-16T02:35:26.411Z,12.75
2022-11-16T02:37:59.502Z,12.76
2022-11-16T02:40:32.485Z,12.75
2022-11-16T02:43:05.115Z,12.75
2022-11-16T02:45:37.027Z,12.70
2022-11-16T02:48:09.306Z,12.72
2022-11-16T02:50:39.427Z,12.75
2022-11-16T02:53:07.194Z,12.76
2022-11-16T02:55:37.164Z,12.75
2022-11-16T02:58:07.294Z,12.76
2022-11-16T03:00:43.551Z,12.76
2022-11-16T03:03:25.313Z,12.74
2022-11-16T03:05:59.554Z,12.74
2022-11-16T03:08:35.083Z,12.75
2022-11-16T03:11:23.584Z,12.75
2022-11-16T03:13:52.997Z,12.74
2022-11-16T03:16:25.332Z,12.75
2022-11-16T03:18:56.448Z,12.74
2022-11-16T03:21:28.794Z,12.76
2022-11-16T03:23:56.743Z,12.76
2022-11-16T03:26:30.542Z,12.75
2022-11-16T03:29:02.781Z,12.76
2022-11-16T03:31:36.994Z,12.74
2022-11-16T03:34:08.980Z,12.74
2022-11-16T03:36:40.117Z,12.75
2022-11-16T03:39:13.561Z,12.73
2022-11-16T03:41:44.513Z,12.69
2022-11-16T03:44:15.433Z,12.74
2022-11-16T03:46:45.371Z,12.74
2022-11-16T03:49:13.386Z,12.74
2022-11-16T03:51:41.545Z,12.73
2022-11-16T03:54:09.221Z,12.73
2022-11-16T03:56:36.900Z,12.72
2022-11-16T03:59:04.549Z,12.71
2022-11-16T04:01:32.589Z,12.71
2022-11-16T04:04:01.590Z,12.71
2022-11-16T04:06:47.051Z,12.69
2022-11-16T04:09:32.201Z,12.68
2022-11-16T04:12:17.741Z,12.66
2022-11-16T04:15:03.021Z,12.66
2022-11-16T04:17:53.601Z,12.66
2022-11-16T04:20:40.442Z,12.67
2022-11-16T04:23:30.074Z,12.65
2022-11-16T04:25:58.245Z,12.66
2022-11-16T04:28:29.754Z,12.59
2022-11-16T04:31:17.378Z,12.64
2022-11-16T04:34:02.763Z,12.63
2022-11-16T04:36:49.749Z,12.63
2022-11-16T04:39:17.415Z,12.63
2022-11-16T04:42:02.416Z,12.61
2022-11-16T04:44:50.366Z,12.61
2022-11-16T04:47:17.033Z,12.61
2022-11-16T04:49:44.725Z,12.60
2022-11-16T04:52:13.736Z,12.57
2022-11-16T04:54:41.401Z,12.58
2022-11-16T04:57:09.047Z,12.56
2022-11-16T04:59:36.726Z,12.58
2022-11-16T05:02:10.586Z,12.58
2022-11-16T05:04:39.216Z,12.58
2022-11-16T05:07:10.887Z,12.57
2022-11-16T05:09:43.022Z,12.55
2022-11-16T05:12:11.301Z,12.56
2022-11-16T05:14:38.988Z,12.57
2022-11-16T05:17:06.632Z,12.55
2022-11-16T05:19:51.806Z,12.55
2022-11-16T05:22:19.460Z,12.54
2022-11-16T05:24:48.510Z,12.55
2022-11-16T05:27:18.006Z,12.54
2022-11-16T05:29:45.729Z,12.46
2022-11-16T05:32:14.244Z,12.54
2022-11-16T05:34:42.228Z,12.52
2022-11-16T05:37:10.492Z,12.53
2022-11-16T05:39:38.811Z,12.52
2022-11-16T05:42:08.394Z,12.51
2022-11-16T05:44:36.442Z,12.48
2022-11-16T05:47:04.189Z,12.50
2022-11-16T05:49:32.003Z,12.49
2022-11-16T05:51:59.684Z,12.48
2022-11-16T05:54:27.424Z,12.47
2022-11-16T05:56:55.928Z,12.46
2022-11-16T05:59:25.049Z,12.44
2022-11-16T06:01:52.867Z,12.43
2022-11-16T06:04:24.801Z,12.42
2022-11-16T06:06:53.192Z,12.41
2022-11-16T06:09:20.959Z,12.40
2022-11-16T06:11:48.685Z,12.41
2022-11-16T06:14:16.333Z,12.38
2022-11-16T06:16:45.401Z,12.37
2022-11-16T06:19:13.049Z,12.36
2022-11-16T06:21:40.779Z,12.37
2022-11-16T06:24:09.500Z,12.35
2022-11-16T06:26:37.714Z,12.35
2022-11-16T06:29:05.472Z,12.32
2022-11-16T06:31:33.265Z,12.32
2022-11-16T06:34:02.247Z,12.31
2022-11-16T06:36:29.939Z,12.28
2022-11-16T06:38:59.908Z,12.30
2022-11-16T06:41:27.648Z,12.29
2022-11-16T06:43:55.343Z,12.27
2022-11-16T06:46:24.509Z,12.26
2022-11-16T06:48:52.154Z,12.27
2022-11-16T06:51:21.192Z,12.25
2022-11-16T06:53:48.891Z,12.23
2022-11-16T06:56:17.338Z,12.22
2022-11-16T06:58:44.996Z,12.22
2022-11-16T07:01:13.039Z,12.20
2022-11-16T07:03:41.189Z,12.21
2022-11-16T07:06:10.481Z,12.19
2022-11-16T07:08:39.545Z,12.20
2022-11-16T07:11:08.926Z,12.20
2022-11-16T07:13:37.872Z,12.19
2022-11-16T07:16:06.734Z,12.17
2022-11-16T07:18:35.395Z,12.15
2022-11-16T07:21:07.325Z,12.17
2022-11-16T07:23:35.503Z,12.14
2022-11-16T07:26:06.809Z,12.16
2022-11-16T07:28:35.368Z,12.15
2022-11-16T07:31:03.732Z,12.15
2022-11-16T07:33:31.558Z,12.11
2022-11-16T07:36:02.072Z,12.16
2022-11-16T07:38:29.952Z,12.16
2022-11-16T07:41:00.811Z,12.17
2022-11-16T07:43:31.676Z,12.15
2022-11-16T07:46:28.247Z,12.16
2022-11-16T07:48:51.640Z,12.16
2022-11-16T07:51:20.655Z,12.15
2022-11-16T07:53:48.443Z,12.13
2022-11-16T07:56:16.158Z,12.13
2022-11-16T07:58:45.746Z,12.13
2022-11-16T08:01:15.542Z,12.10
2022-11-16T08:03:44.818Z,12.09
2022-11-16T08:06:15.461Z,12.10
2022-11-16T08:08:43.229Z,12.10
2022-11-16T08:11:12.920Z,12.09
2022-11-16T08:13:42.217Z,12.09
2022-11-16T08:16:14.205Z,12.10
2022-11-16T08:18:42.766Z,12.09
2022-11-16T08:21:12.663Z,12.10
2022-11-16T08:23:41.115Z,12.10
2022-11-16T08:26:10.309Z,12.09
2022-11-16T08:28:38.563Z,12.09
2022-11-16T08:31:11.481Z,12.09
2022-11-16T08:33:39.368Z,12.08
2022-11-16T08:36:13.819Z,12.09
2022-11-16T08:38:42.065Z,12.10
2022-11-16T08:41:09.823Z,12.11
2022-11-16T08:43:39.490Z,12.12
2022-11-16T08:46:07.851Z,12.15
2022-11-16T08:48:37.552Z,12.14
2022-11-16T08:51:22.007Z,12.13
2022-11-16T08:53:50.439Z,12.11
2022-11-16T08:56:19.384Z,12.12
2022-11-16T08:58:50.310Z,12.11
2022-11-16T09:01:21.905Z,12.12
2022-11-16T09:03:51.241Z,12.13
2022-11-16T09:06:19.110Z,12.12
2022-11-16T09:08:47.966Z,12.12
2022-11-16T09:11:17.778Z,12.13
2022-11-16T09:13:46.100Z,12.13
2022-11-16T09:16:16.544Z,12.17
2022-11-16T09:18:45.594Z,12.16
2022-11-16T09:21:18.991Z,12.16
2022-11-16T09:23:47.519Z,12.18
2022-11-16T09:26:16.564Z,12.18
2022-11-16T09:28:44.314Z,12.16
2022-11-16T09:31:11.978Z,12.18
2022-11-16T09:33:39.721Z,12.18
2022-11-16T09:36:09.661Z,12.17
2022-11-16T09:39:13.314Z,12.20
2022-11-16T09:41:44.733Z,12.22
2022-11-16T09:44:28.206Z,12.22
2022-11-16T09:46:58.840Z,12.22
2022-11-16T09:49:29.919Z,12.22
2022-11-16T09:52:03.393Z,12.24
2022-11-16T09:54:36.606Z,12.32
2022-11-16T09:57:12.251Z,12.32
2022-11-16T09:59:43.907Z,12.40
2022-11-16T10:02:21.870Z,12.36
2022-11-16T10:04:58.162Z,12.36
2022-11-16T10:07:32.724Z,12.37
2022-11-16T10:10:01.867Z,12.37
2022-11-16T10:12:36.279Z,12.39
2022-11-16T10:15:35.437Z,12.39
2022-11-16T10:18:15.421Z,12.38
2022-11-16T10:21:08.340Z,12.41
2022-11-16T10:23:49.757Z,12.43
2022-11-16T10:26:28.295Z,12.42
2022-11-16T10:29:15.945Z,12.41
2022-11-16T10:31:56.503Z,12.43
2022-11-16T10:34:28.079Z,12.42
2022-11-16T10:37:03.207Z,12.51
2022-11-16T10:39:34.003Z,12.51
2022-11-16T10:42:07.874Z,12.54
2022-11-16T10:44:41.339Z,12.65
2022-11-16T10:47:16.185Z,12.64
2022-11-16T10:49:51.364Z,12.61
2022-11-16T10:52:19.191Z,12.57
2022-11-16T10:54:46.846Z,12.57
2022-11-16T10:57:16.308Z,12.59
2022-11-16T10:59:45.715Z,12.59
2022-11-16T11:02:29.035Z,12.62
2022-11-16T11:05:06.348Z,12.67
2022-11-16T11:07:37.646Z,12.64
2022-11-16T11:10:06.968Z,12.68
2022-11-16T11:12:37.912Z,12.66
2022-11-16T11:15:25.602Z,12.64
2022-11-16T11:18:20.296Z,12.76
2022-11-16T11:20:50.318Z,12.70
2022-11-16T11:23:20.612Z,12.68
2022-11-16T11:25:54.677Z,12.69
2022-11-16T11:28:26.174Z,12.68
2022-11-16T11:30:58.737Z,12.69
2022-11-16T11:33:28.328Z,12.71
2022-11-16T11:36:06.106Z,12.72
2022-11-16T11:38:34.861Z,12.74
2022-11-16T11:41:05.260Z,12.73
2022-11-16T11:43:35.159Z,12.79
2022-11-16T11:46:13.061Z,12.76
2022-11-16T11:48:49.108Z,12.74
2022-11-16T11:51:25.123Z,12.74
2022-11-16T11:53:59.496Z,12.73
2022-11-16T11:56:30.248Z,12.76
2022-11-16T11:58:59.655Z,12.78
2022-11-16T12:01:55.829Z,12.77
2022-11-16T12:04:48.370Z,12.77
2022-11-16T12:07:28.721Z,12.78
2022-11-16T12:10:04.285Z,12.77
2022-11-16T12:12:44.246Z,12.77
2022-11-16T12:15:30.743Z,12.76
2022-11-16T12:18:07.443Z,12.74
2022-11-16T12:20:44.551Z,12.78
2022-11-16T12:23:32.592Z,12.79
2022-11-16T12:26:08.203Z,12.81
2022-11-16T12:28:51.185Z,12.92
2022-11-16T12:31:50.907Z,12.89
2022-11-16T12:34:29.126Z,12.88
2022-11-16T12:37:05.198Z,12.86
2022-11-16T12:39:36.304Z,12.89
2022-11-16T12:42:22.570Z,12.89
2022-11-16T12:45:06.174Z,12.89
2022-11-16T12:47:48.784Z,12.88
2022-11-16T12:50:32.362Z,12.87
2022-11-16T12:53:20.062Z,12.88
2022-11-16T12:55:58.709Z,12.88
2022-11-16T12:58:42.745Z,12.89
2022-11-16T13:01:18.380Z,12.89
2022-11-16T13:03:53.596Z,12.88
2022-11-16T13:06:27.370Z,12.91
2022-11-16T13:09:02.736Z,12.91
2022-11-16T13:11:33.497Z,12.91
2022-11-16T13:14:05.192Z,12.92
2022-11-16T13:16:32.938Z,12.94
2022-11-16T13:19:05.108Z,12.95
2022-11-16T13:21:41.573Z,12.96
2022-11-16T13:24:24.900Z,12.94
2022-11-16T13:27:00.291Z,12.95
2022-11-16T13:29:35.151Z,12.96
2022-11-16T13:32:09.902Z,12.98
2022-11-16T13:34:41.159Z,12.97
2022-11-16T13:37:42.117Z,12.98
2022-11-16T13:40:14.863Z,12.99
2022-11-16T13:42:58.422Z,13.00
2022-11-16T13:45:34.765Z,13.00
2022-11-16T13:48:05.044Z,12.98
2022-11-16T13:50:38.404Z,13.03
2022-11-16T13:56:02.468Z,13.11
2022-11-16T13:58:31.761Z,13.30
2022-11-16T14:01:06.016Z,13.17
2022-11-16T14:03:38.580Z,13.12
2022-11-16T14:06:46.825Z,13.13
2022-11-16T14:09:45.245Z,13.10
2022-11-16T14:12:55.722Z,13.08
2022-11-16T14:15:25.682Z,13.07
2022-11-16T14:17:57.605Z,13.04
2022-11-16T14:20:32.485Z,13.05
2022-11-16T14:23:14.311Z,13.14
2022-11-16T14:25:47.094Z,13.10
2022-11-16T14:28:27.961Z,13.08
2022-11-16T14:31:07.143Z,13.08
2022-11-16T14:33:37.352Z,12.99
2022-11-16T14:36:08.691Z,13.05
2022-11-16T14:38:39.651Z,13.04
2022-11-16T14:41:13.344Z,13.04
2022-11-16T14:43:44.673Z,13.03
2022-11-16T14:46:22.053Z,13.02
2022-11-16T14:48:50.558Z,13.03
2022-11-16T14:51:22.781Z,13.02
2022-11-16T14:53:54.562Z,13.01
2022-11-16T14:56:22.697Z,13.02
2022-11-16T14:58:55.303Z,12.98
2022-11-16T15:01:25.282Z,13.01
2022-11-16T15:03:58.038Z,13.01
2022-11-16T15:06:27.149Z,13.00
2022-11-16T15:09:00.477Z,12.99
2022-11-16T15:11:45.300Z,12.99
2022-11-16T15:14:17.963Z,13.02
2022-11-16T15:16:50.107Z,13.03
2022-11-16T15:19:17.801Z,13.03
2022-11-16T15:21:51.809Z,13.04
2022-11-16T15:24:31.355Z,13.03
2022-11-16T15:27:11.339Z,13.02
2022-11-16T15:29:39.670Z,13.02
2022-11-16T15:32:08.462Z,13.02
2022-11-16T15:34:40.193Z,13.01
2022-11-16T15:37:11.934Z,12.99
2022-11-16T15:39:41.070Z,13.00
2022-11-16T15:42:14.858Z,12.99
2022-11-16T15:44:44.208Z,12.97
2022-11-16T15:47:14.478Z,12.98
2022-11-16T15:49:44.087Z,12.97
2022-11-16T15:52:11.993Z,12.98
2022-11-16T15:54:57.807Z,12.98
2022-11-16T15:57:25.989Z,12.98
2022-11-16T15:59:56.094Z,12.96
2022-11-16T16:02:25.914Z,12.95
2022-11-16T16:04:53.599Z,12.95
2022-11-16T16:07:39.792Z,12.93
2022-11-16T16:10:25.227Z,12.92
2022-11-16T16:12:54.427Z,12.90
2022-11-16T16:15:24.723Z,12.89
2022-11-16T16:17:53.802Z,12.89
2022-11-16T16:20:23.722Z,12.87
2022-11-16T16:22:51.414Z,12.87
2022-11-16T16:25:31.498Z,12.85
2022-11-16T16:27:59.233Z,12.85
2022-11-16T16:30:28.762Z,12.84
2022-11-16T16:32:56.835Z,12.84
2022-11-16T16:35:26.216Z,12.82
2022-11-16T16:37:58.601Z,12.81
2022-11-16T16:40:27.189Z,12.81
2022-11-16T16:42:58.076Z,12.80
2022-11-16T16:45:34.528Z,12.80
2022-11-16T16:48:02.263Z,12.80
2022-11-16T16:50:29.972Z,12.79
2022-11-16T16:52:57.670Z,12.78
2022-11-16T16:55:25.355Z,12.78
2022-11-16T16:57:53.996Z,12.77
2022-11-16T17:00:23.240Z,12.76
2022-11-16T17:02:51.064Z,12.76
2022-11-16T17:05:18.878Z,12.74
2022-11-16T17:07:49.228Z,12.74
2022-11-16T17:10:17.883Z,12.74
2022-11-16T17:12:45.523Z,12.73
2022-11-16T17:15:19.034Z,12.73
2022-11-16T17:17:48.746Z,12.72
2022-11-16T17:20:16.964Z,12.71
2022-11-16T17:22:45.141Z,12.71
2022-11-16T17:25:13.198Z,12.71
2022-11-16T17:27:40.903Z,12.72
2022-11-16T17:30:10.132Z,12.73
2022-11-16T17:32:37.895Z,12.71
2022-11-16T17:35:07.411Z,12.73
2022-11-16T17:37:35.085Z,12.73
2022-11-16T17:40:02.727Z,12.71
2022-11-16T17:42:30.399Z,12.71
2022-11-16T17:44:58.048Z,12.71
2022-11-16T17:47:25.812Z,12.74
2022-11-16T17:49:53.732Z,12.74
2022-11-16T17:52:22.794Z,12.73
2022-11-16T17:54:50.454Z,12.71
2022-11-16T17:57:18.313Z,12.70
2022-11-16T17:59:46.676Z,12.69
2022-11-16T18:02:14.389Z,12.68
2022-11-16T18:04:44.622Z,12.67
2022-11-16T18:07:15.943Z,12.67
2022-11-16T18:09:44.965Z,12.65
2022-11-16T18:12:12.607Z,12.65
2022-11-16T18:14:40.312Z,12.66
2022-11-16T18:17:07.976Z,12.67
2022-11-16T18:19:35.633Z,12.66
2022-11-16T18:22:03.307Z,12.66
2022-11-16T18:24:31.161Z,12.63
2022-11-16T18:27:00.161Z,12.63
2022-11-16T18:29:27.882Z,12.63
2022-11-16T18:31:55.543Z,12.60
2022-11-16T18:34:23.197Z,12.64
2022-11-16T18:36:50.930Z,12.67
2022-11-16T18:39:18.898Z,12.75
2022-11-16T18:41:54.508Z,12.89
2022-11-16T18:44:24.181Z,13.07
2022-11-16T18:46:51.860Z,13.18
2022-11-16T18:49:19.687Z,13.32
2022-11-16T18:51:47.361Z,13.47
2022-11-16T18:54:15.050Z,13.55
2022-11-16T18:56:42.726Z,13.55
2022-11-16T18:59:10.431Z,13.45
2022-11-16T19:01:39.455Z,13.37
2022-11-16T19:04:07.558Z,13.29
2022-11-16T19:06:35.346Z,13.23
2022-11-16T19:09:04.376Z,13.19
2022-11-16T19:11:32.098Z,13.15
2022-11-16T19:14:03.747Z,13.12
2022-11-16T19:16:32.479Z,13.08
2022-11-16T19:19:02.342Z,13.04
2022-11-16T19:21:30.789Z,13.01
2022-11-16T19:23:58.796Z,12.99
2022-11-16T19:26:28.576Z,12.96
2022-11-16T19:28:56.675Z,12.95
2022-11-16T19:31:25.784Z,12.93
2022-11-16T19:33:57.633Z,12.90
2022-11-16T19:36:28.660Z,12.89
2022-11-16T19:38:56.902Z,12.87
2022-11-16T19:41:25.989Z,12.84
2022-11-16T19:43:57.189Z,12.82
2022-11-16T19:46:25.868Z,12.80
2022-11-16T19:48:54.102Z,12.79
2022-11-16T19:51:23.249Z,12.78
2022-11-16T19:53:52.422Z,12.74
2022-11-16T19:56:21.997Z,12.70
2022-11-16T19:58:49.727Z,12.73
2022-11-16T20:01:19.677Z,12.72
2022-11-16T20:03:49.386Z,12.70
2022-11-16T20:06:22.002Z,12.67
2022-11-16T20:08:52.931Z,12.64
2022-11-16T20:11:23.224Z,12.66
2022-11-16T20:13:52.355Z,12.63
2022-11-16T20:16:23.283Z,12.63
2022-11-16T20:18:52.888Z,12.63
2022-11-16T20:21:23.771Z,12.61
2022-11-16T20:23:53.970Z,12.60
2022-11-16T20:26:22.804Z,12.59
2022-11-16T20:28:52.425Z,12.58
2022-11-16T20:31:21.586Z,12.54
2022-11-16T20:33:51.521Z,12.55
2022-11-16T20:36:19.878Z,12.54
2022-11-16T20:38:47.576Z,12.56
2022-11-16T20:41:18.366Z,12.60
2022-11-16T20:43:47.222Z,12.59
2022-11-16T20:46:16.837Z,12.58
2022-11-16T20:48:45.797Z,12.58
2022-11-16T20:51:15.225Z,12.57
2022-11-16T20:53:42.926Z,12.54
2022-11-16T20:56:11.678Z,12.53
2022-11-16T20:58:40.956Z,12.53
2022-11-16T21:01:11.396Z,12.53
2022-11-16T21:03:39.289Z,12.64
2022-11-16T21:06:08.858Z,12.61
2022-11-16T21:08:37.803Z,12.58
2022-11-16T21:11:11.120Z,12.57
2022-11-16T21:13:57.661Z,12.56
2022-11-16T21:16:25.445Z,12.55
2022-11-16T21:18:54.443Z,12.54
2022-11-16T21:21:22.377Z,12.53
2022-11-16T21:23:52.418Z,12.52
2022-11-16T21:26:21.909Z,12.52
2022-11-16T21:28:51.405Z,12.52
2022-11-16T21:31:20.784Z,12.53
2022-11-16T21:33:49.118Z,12.52
2022-11-16T21:36:18.892Z,12.49
2022-11-16T21:38:46.961Z,12.49
2022-11-16T21:41:16.745Z,12.50
2022-11-16T21:43:44.468Z,12.51
2022-11-16T21:46:15.309Z,12.49
2022-11-16T21:48:43.257Z,12.48
2022-11-16T21:51:12.530Z,12.48
2022-11-16T21:53:40.986Z,12.48
2022-11-16T21:56:13.556Z,12.48
2022-11-16T21:58:41.850Z,12.46
2022-11-16T22:01:11.238Z,12.45
2022-11-16T22:03:40.382Z,12.45
2022-11-16T22:06:30.072Z,12.46
2022-11-16T22:08:57.852Z,12.47
2022-11-16T22:11:25.681Z,12.44
2022-11-16T22:13:53.382Z,12.44
2022-11-16T22:16:23.158Z,12.42
2022-11-16T22:18:52.480Z,12.40
2022-11-16T22:21:20.180Z,12.42
2022-11-16T22:23:47.874Z,12.41
2022-11-16T22:26:15.593Z,12.40
2022-11-16T22:28:43.442Z,12.39
2022-11-16T22:31:12.958Z,12.37
2022-11-16T22:33:41.410Z,12.34
2022-11-16T22:36:13.266Z,12.36
2022-11-16T22:38:41.002Z,12.36
2022-11-16T22:41:08.670Z,12.35
2022-11-16T22:43:37.408Z,12.34
2022-11-16T22:46:06.874Z,12.33
2022-11-16T22:48:36.399Z,12.32
2022-11-16T22:51:08.901Z,12.32
2022-11-16T22:53:38.247Z,12.31
2022-11-16T22:56:07.899Z,12.32
2022-11-16T22:58:35.781Z,12.32
2022-11-16T23:01:03.844Z,12.33
2022-11-16T23:03:31.718Z,12.32
2022-11-16T23:05:59.588Z,12.31
2022-11-16T23:08:27.672Z,12.31
2022-11-16T23:11:19.154Z,12.32
2022-11-16T23:14:04.564Z,12.32
2022-11-16T23:16:32.259Z,12.30
2022-11-16T23:19:00.249Z,12.31
2022-11-16T23:21:45.761Z,12.27
2022-11-16T23:24:32.830Z,12.32
2022-11-16T23:27:21.071Z,12.32
2022-11-16T23:29:48.973Z,12.31
2022-11-16T23:32:16.708Z,12.31
2022-11-16T23:34:44.370Z,12.31
2022-11-16T23:37:12.074Z,12.30
2022-11-16T23:39:39.897Z,12.30
2022-11-16T23:42:26.747Z,12.30
2022-11-16T23:44:54.431Z,12.29
2022-11-16T23:47:22.323Z,12.27
2022-11-16T23:49:50.033Z,12.29
2022-11-16T23:52:17.852Z,12.27
2022-11-16T23:54:45.517Z,12.26
2022-11-16T23:57:14.553Z,12.26
2022-11-16T23:59:42.270Z,12.25
